Time;durP1;ratioP1;P1;durP2;ratioP2;P2;SDS_P1;SDS_P2;PMS_P1;PMS_P2;Temp;Humidity;BMP_temperature;BMP_pressure;BME280_temperature;BME280_humidity;BME280_pressure;Samples;Min_cycle;Max_cycle;Signal;HPM_P1;HPM_P2
2021/07/31 00:02:01;;;;;;;2.28;0.55;;;17.80;73.40;;;;;;5096005;28;20117;-77
2021/07/31 00:04:31;;;;;;;1.20;0.45;;;17.80;73.50;;;;;;5090575;28;20032;-77
2021/07/31 00:06:58;;;;;;;1.60;0.50;;;17.80;73.70;;;;;;5117235;27;20028;-77
2021/07/31 00:09:25;;;;;;;1.73;0.55;;;17.80;73.70;;;;;;5114037;28;20092;-77
2021/07/31 00:11:52;;;;;;;2.88;0.90;;;17.70;73.80;;;;;;5113698;28;20043;-77
2021/07/31 00:14:19;;;;;;;2.95;0.60;;;17.70;73.90;;;;;;5114337;28;20040;-82
2021/07/31 00:17:26;;;;;;;3.63;0.80;;;17.70;74.00;;;;;;5079517;28;20040;-83
2021/07/31 00:19:53;;;;;;;2.00;0.60;;;17.70;74.00;;;;;;5097110;28;20123;-87
2021/07/31 00:22:20;;;;;;;2.50;0.50;;;17.60;74.20;;;;;;5078791;28;20032;-83
2021/07/31 00:24:47;;;;;;;5.22;0.90;;;17.70;74.20;;;;;;5117179;27;20035;-81
2021/07/31 00:27:14;;;;;;;2.33;0.60;;;17.70;74.30;;;;;;5110443;28;20550;-82
2021/07/31 00:29:43;;;;;;;3.47;0.60;;;17.70;74.20;;;;;;5093999;28;20576;-83
2021/07/31 00:32:11;;;;;;;2.47;0.50;;;17.70;74.20;;;;;;5088361;28;20040;-82
2021/07/31 00:34:38;;;;;;;3.08;0.60;;;17.70;74.90;;;;;;5111991;28;20039;-83
2021/07/31 00:37:05;;;;;;;3.80;0.63;;;17.80;74.30;;;;;;5071134;28;20043;-83
2021/07/31 00:39:38;;;;;;;2.20;0.85;;;17.80;74.40;;;;;;5079563;28;20063;-83
2021/07/31 00:42:09;;;;;;;1.77;0.60;;;17.80;74.40;;;;;;5076918;28;20048;-83
2021/07/31 00:44:37;;;;;;;3.25;0.85;;;17.80;74.50;;;;;;5105387;28;20043;-79
2021/07/31 00:47:04;;;;;;;2.40;0.60;;;17.80;74.50;;;;;;5114679;28;20051;-77
2021/07/31 00:49:33;;;;;;;3.10;0.70;;;17.80;74.50;;;;;;5107689;28;20054;-77
2021/07/31 00:52:02;;;;;;;3.17;0.70;;;17.80;74.60;;;;;;5105189;28;20089;-77
2021/07/31 00:54:29;;;;;;;3.35;1.20;;;17.80;74.70;;;;;;5102820;28;20119;-77
2021/07/31 00:56:58;;;;;;;3.55;1.15;;;17.80;74.70;;;;;;5094776;28;20109;-77
2021/07/31 00:59:28;;;;;;;2.97;0.90;;;17.80;74.70;;;;;;5108622;27;20036;-77
2021/07/31 01:01:55;;;;;;;4.25;0.77;;;17.80;74.80;;;;;;5100659;28;20044;-77
2021/07/31 01:04:23;;;;;;;2.08;0.60;;;17.80;74.80;;;;;;5095578;28;20054;-77
2021/07/31 01:06:50;;;;;;;4.13;0.75;;;17.80;75.00;;;;;;5060004;28;20044;-77
2021/07/31 01:09:17;;;;;;;4.47;1.10;;;17.70;75.10;;;;;;5112175;28;20071;-77
2021/07/31 01:11:44;;;;;;;2.70;0.85;;;17.70;75.20;;;;;;5097957;28;20496;-77
2021/07/31 01:14:12;;;;;;;3.05;0.60;;;17.80;75.30;;;;;;5110426;28;20104;-77
2021/07/31 01:16:39;;;;;;;3.00;0.60;;;17.80;75.30;;;;;;5114308;28;20510;-77
2021/07/31 01:19:07;;;;;;;1.98;0.65;;;17.70;75.30;;;;;;5106756;28;20032;-77
2021/07/31 01:21:42;;;;;;;4.28;0.80;;;17.80;75.40;;;;;;5095024;28;20100;-77
2021/07/31 01:24:28;;;;;;;4.07;1.20;;;17.80;75.40;;;;;;5100115;28;20490;-76
2021/07/31 01:26:55;;;;;;;3.08;0.57;;;17.80;75.50;;;;;;5093561;28;20048;-76
2021/07/31 01:29:22;;;;;;;4.25;0.82;;;17.80;75.50;;;;;;5103848;28;20425;-77
2021/07/31 01:31:50;;;;;;;2.33;0.80;;;17.80;75.50;;;;;;5113370;28;20031;-77
2021/07/31 01:34:17;;;;;;;4.25;0.88;;;17.80;75.60;;;;;;5088156;28;20113;-76
2021/07/31 01:36:45;;;;;;;3.15;0.88;;;17.70;75.70;;;;;;5091185;28;20067;-76
2021/07/31 01:39:14;;;;;;;2.97;0.88;;;17.70;75.80;;;;;;5115903;27;20122;-77
2021/07/31 01:41:42;;;;;;;1.90;0.77;;;17.70;76.10;;;;;;5112805;27;20039;-76
2021/07/31 01:44:10;;;;;;;5.47;0.70;;;17.60;76.10;;;;;;5124282;27;20039;-77
2021/07/31 01:46:37;;;;;;;2.80;0.80;;;17.60;76.30;;;;;;5113738;27;20031;-77
2021/07/31 01:49:05;;;;;;;3.40;1.00;;;17.60;76.40;;;;;;5097733;27;20037;-77
2021/07/31 01:51:38;;;;;;;5.05;1.00;;;17.60;76.60;;;;;;5108595;28;20047;-77
2021/07/31 01:54:05;;;;;;;2.58;0.82;;;17.50;76.60;;;;;;5074054;28;20043;-77
2021/07/31 01:56:32;;;;;;;2.30;0.80;;;17.50;76.70;;;;;;5105047;28;20043;-77
2021/07/31 01:59:00;;;;;;;4.07;0.77;;;17.50;76.90;;;;;;5125384;27;20065;-77
2021/07/31 02:01:28;;;;;;;4.25;1.00;;;17.50;77.10;;;;;;5111813;28;20065;-77
2021/07/31 02:03:59;;;;;;;2.50;1.13;;;17.50;77.20;;;;;;5127594;27;20110;-77
2021/07/31 02:06:28;;;;;;;2.47;0.90;;;17.40;77.30;;;;;;5113204;28;20126;-77
2021/07/31 02:08:57;;;;;;;3.10;0.82;;;17.40;77.50;;;;;;5111432;28;20036;-77
2021/07/31 02:11:25;;;;;;;4.28;0.75;;;17.30;77.70;;;;;;5111317;28;20548;-78
2021/07/31 02:13:59;;;;;;;3.65;0.88;;;17.20;77.90;;;;;;5110444;28;20032;-77
2021/07/31 02:16:32;;;;;;;4.07;0.65;;;17.10;78.40;;;;;;5105253;28;20036;-78
2021/07/31 02:19:04;;;;;;;2.53;0.70;;;17.00;78.60;;;;;;5083882;28;20052;-78
2021/07/31 02:21:41;;;;;;;3.78;1.27;;;17.00;79.00;;;;;;5092204;28;20514;-77
2021/07/31 02:24:26;;;;;;;2.42;0.93;;;16.90;79.10;;;;;;5109071;28;20128;-78
2021/07/31 02:27:12;;;;;;;2.75;1.27;;;16.90;79.30;;;;;;5091280;28;20140;-77
2021/07/31 02:29:51;;;;;;;3.63;0.98;;;16.80;79.60;;;;;;5063870;28;20048;-77
2021/07/31 02:32:19;;;;;;;4.75;1.42;;;16.70;79.60;;;;;;5111437;28;20042;-77
2021/07/31 02:34:50;;;;;;;5.22;1.45;;;16.80;79.90;;;;;;5091400;28;20048;-77
2021/07/31 02:37:17;;;;;;;4.28;1.00;;;16.80;80.00;;;;;;5109020;28;20476;-77
2021/07/31 02:39:48;;;;;;;3.28;1.45;;;16.70;79.90;;;;;;5094686;28;20554;-78
2021/07/31 02:42:16;;;;;;;2.20;0.98;;;16.70;79.90;;;;;;5116309;28;20556;-77
2021/07/31 02:44:43;;;;;;;3.30;1.00;;;16.80;79.90;;;;;;5126651;28;20093;-77
2021/07/31 02:47:16;;;;;;;3.63;1.00;;;16.80;80.10;;;;;;5115337;28;20134;-78
2021/07/31 02:49:47;;;;;;;3.03;1.23;;;16.80;80.10;;;;;;5098687;28;20043;-77
2021/07/31 02:52:15;;;;;;;3.88;1.20;;;16.80;80.00;;;;;;5120675;27;20036;-77
2021/07/31 02:54:50;;;;;;;5.80;1.23;;;16.90;79.90;;;;;;5104028;27;20088;-77
2021/07/31 02:57:18;;;;;;;3.72;1.05;;;16.90;79.80;;;;;;5116026;28;20039;-77
2021/07/31 02:59:45;;;;;;;3.33;1.30;;;16.90;79.70;;;;;;5117376;27;20039;-77
2021/07/31 03:02:16;;;;;;;2.20;1.00;;;17.00;79.80;;;;;;5104545;28;20130;-77
2021/07/31 03:04:47;;;;;;;3.75;1.17;;;17.00;79.70;;;;;;5119979;27;20035;-77
2021/07/31 03:07:20;;;;;;;3.58;1.00;;;17.10;79.60;;;;;;5116035;28;20518;-77
2021/07/31 03:09:51;;;;;;;4.53;0.80;;;17.10;79.60;;;;;;5115335;28;20067;-77
2021/07/31 03:12:20;;;;;;;3.35;0.90;;;17.10;79.60;;;;;;5098770;28;20438;-78
2021/07/31 03:14:49;;;;;;;2.22;0.82;;;17.20;79.60;;;;;;5114497;28;20039;-78
2021/07/31 03:17:17;;;;;;;4.80;1.27;;;17.20;79.50;;;;;;5118517;27;20448;-78
2021/07/31 03:19:45;;;;;;;3.75;1.20;;;17.10;80.30;;;;;;5108278;28;20407;-77
2021/07/31 03:22:16;;;;;;;4.05;1.25;;;17.00;80.60;;;;;;5113515;28;20052;-77
2021/07/31 03:24:49;;;;;;;6.90;1.48;;;16.90;80.30;;;;;;5104374;28;20499;-78
2021/07/31 03:27:17;;;;;;;3.58;1.40;;;16.80;80.80;;;;;;5110885;28;20046;-78
2021/07/31 03:30:22;;;;;;;7.15;1.67;;;16.70;81.10;;;;;;5099083;28;20040;-78
2021/07/31 03:32:58;;;;;;;3.90;1.30;;;16.50;81.40;;;;;;5120561;27;20042;-77
2021/07/31 03:35:25;;;;;;;4.13;1.52;;;16.50;81.80;;;;;;5123583;27;20054;-78
2021/07/31 03:38:11;;;;;;;3.20;1.02;;;16.40;82.00;;;;;;5116167;28;20109;-77
2021/07/31 03:40:40;;;;;;;4.32;1.70;;;16.40;82.30;;;;;;5114718;28;20042;-78
2021/07/31 03:43:09;;;;;;;5.55;1.75;;;16.30;82.60;;;;;;5093088;28;20077;-78
2021/07/31 03:45:37;;;;;;;4.78;2.28;;;16.20;82.70;;;;;;5077857;28;20043;-79
2021/07/31 03:48:04;;;;;;;4.65;2.30;;;16.20;83.30;;;;;;5103354;28;20051;-80
2021/07/31 03:50:31;;;;;;;3.53;2.10;;;16.20;83.30;;;;;;5081233;28;20453;-79
2021/07/31 03:53:03;;;;;;;5.00;2.75;;;16.10;83.70;;;;;;5107079;27;20105;-78
2021/07/31 03:55:34;;;;;;;6.88;3.25;;;16.10;84.20;;;;;;5081608;28;20122;-78
2021/07/31 03:58:04;;;;;;;7.00;3.15;;;16.00;85.00;;;;;;5082877;28;20044;-77
2021/07/31 04:00:32;;;;;;;5.28;2.83;;;15.90;85.20;;;;;;5112700;28;20063;-77
2021/07/31 04:03:04;;;;;;;3.42;1.90;;;15.90;85.10;;;;;;5089403;28;20516;-76
2021/07/31 04:05:32;;;;;;;3.28;1.88;;;15.90;85.10;;;;;;5113561;28;20043;-77
2021/07/31 04:08:17;;;;;;;4.07;2.15;;;15.90;85.20;;;;;;5112749;28;20529;-76
2021/07/31 04:11:04;;;;;;;3.58;1.52;;;15.90;85.10;;;;;;5089347;28;20128;-76
2021/07/31 04:14:03;;;;;;;3.13;1.38;;;15.90;85.10;;;;;;5101145;28;20478;-77
2021/07/31 04:16:56;;;;;;;4.22;1.63;;;15.90;85.10;;;;;;5112546;27;20043;-76
2021/07/31 04:19:23;;;;;;;5.63;2.30;;;16.00;85.10;;;;;;5089444;28;20050;-76
2021/07/31 04:21:53;;;;;;;3.83;2.53;;;16.00;85.30;;;;;;5094290;27;20127;-76
2021/07/31 04:24:22;;;;;;;4.38;2.35;;;15.90;85.60;;;;;;5094152;28;20151;-76
2021/07/31 04:26:49;;;;;;;4.22;2.10;;;15.90;85.70;;;;;;5114937;27;20057;-76
2021/07/31 04:29:16;;;;;;;5.20;2.15;;;15.90;85.80;;;;;;5098071;28;20521;-76
2021/07/31 04:31:44;;;;;;;5.40;1.92;;;15.90;85.90;;;;;;5110227;28;20484;-76
2021/07/31 04:34:11;;;;;;;4.30;1.67;;;16.00;85.90;;;;;;5115011;27;20031;-76
2021/07/31 04:36:38;;;;;;;4.15;1.88;;;15.90;85.80;;;;;;5096067;28;20511;-76
2021/07/31 04:39:06;;;;;;;4.82;2.67;;;16.00;86.00;;;;;;5112066;28;20399;-76
2021/07/31 04:41:33;;;;;;;3.97;2.67;;;16.00;86.60;;;;;;5113073;28;20036;-76
2021/07/31 04:44:00;;;;;;;3.88;2.15;;;15.90;86.40;;;;;;5113754;28;20055;-76
2021/07/31 04:46:27;;;;;;;5.32;2.85;;;15.90;86.50;;;;;;5064406;27;20043;-76
2021/07/31 04:48:54;;;;;;;3.85;2.08;;;16.00;86.70;;;;;;5061919;28;20050;-76
2021/07/31 04:51:21;;;;;;;3.30;1.73;;;15.90;86.60;;;;;;5106116;27;20425;-75
2021/07/31 04:53:48;;;;;;;3.40;1.98;;;16.00;86.60;;;;;;5108814;28;20047;-76
2021/07/31 04:56:15;;;;;;;4.10;2.00;;;16.00;86.50;;;;;;5107697;28;20112;-76
2021/07/31 04:58:42;;;;;;;4.53;1.60;;;16.00;86.50;;;;;;5095732;28;20495;-76
2021/07/31 05:01:09;;;;;;;2.72;1.65;;;16.00;86.60;;;;;;5087076;27;20044;-75
2021/07/31 05:03:36;;;;;;;4.28;2.00;;;16.00;86.60;;;;;;5097744;27;20036;-76
2021/07/31 05:06:07;;;;;;;3.85;1.95;;;16.00;86.60;;;;;;5112093;28;20093;-76
2021/07/31 05:08:34;;;;;;;4.13;2.00;;;16.00;87.40;;;;;;5112655;27;20039;-75
2021/07/31 05:11:07;;;;;;;5.82;1.77;;;15.90;87.20;;;;;;5077752;28;20105;-76
2021/07/31 05:13:37;;;;;;;3.35;1.75;;;15.90;87.10;;;;;;5115089;27;20035;-79
2021/07/31 05:16:04;;;;;;;2.88;1.50;;;15.90;87.10;;;;;;5107991;28;20044;-80
2021/07/31 05:18:32;;;;;;;2.95;1.55;;;16.00;87.20;;;;;;5112192;28;20106;-79
2021/07/31 05:20:59;;;;;;;4.32;1.60;;;16.00;87.00;;;;;;5119586;27;20406;-79
2021/07/31 05:23:26;;;;;;;5.68;2.20;;;16.00;87.00;;;;;;5106665;27;20056;-80
2021/07/31 05:25:53;;;;;;;2.15;1.38;;;16.00;87.30;;;;;;5093503;28;20036;-79
2021/07/31 05:28:20;;;;;;;3.33;1.30;;;16.00;87.10;;;;;;5104940;28;20495;-80
2021/07/31 05:30:47;;;;;;;3.70;1.50;;;16.00;87.10;;;;;;5095617;28;20050;-79
2021/07/31 05:33:14;;;;;;;3.65;1.70;;;16.10;87.40;;;;;;5096002;28;20044;-79
2021/07/31 05:35:41;;;;;;;3.33;1.42;;;16.20;87.20;;;;;;5112080;28;20039;-79
2021/07/31 05:38:08;;;;;;;5.22;1.70;;;16.20;87.00;;;;;;5113372;27;20032;-79
2021/07/31 05:40:36;;;;;;;3.50;1.38;;;16.20;87.10;;;;;;5122773;27;20039;-79
2021/07/31 05:43:03;;;;;;;2.10;1.00;;;16.20;87.00;;;;;;5123107;27;20044;-79
2021/07/31 05:45:30;;;;;;;2.30;0.90;;;16.20;87.00;;;;;;5112668;28;20035;-79
2021/07/31 05:47:58;;;;;;;2.47;1.00;;;16.20;87.10;;;;;;5095339;28;20048;-79
2021/07/31 05:50:25;;;;;;;2.70;1.30;;;16.20;87.20;;;;;;5112058;28;20394;-79
2021/07/31 05:52:52;;;;;;;2.88;1.50;;;16.20;87.30;;;;;;5113429;28;20040;-79
2021/07/31 05:55:19;;;;;;;2.30;1.08;;;16.20;87.90;;;;;;5113045;28;20036;-79
2021/07/31 05:57:46;;;;;;;2.55;1.52;;;16.20;87.30;;;;;;5112130;28;20038;-79
2021/07/31 06:00:14;;;;;;;1.85;1.02;;;16.30;87.30;;;;;;5111398;27;20064;-79
2021/07/31 06:02:42;;;;;;;3.55;1.10;;;16.30;87.10;;;;;;5109590;27;20101;-80
2021/07/31 06:05:11;;;;;;;2.90;1.15;;;16.30;87.10;;;;;;5112795;28;20049;-79
2021/07/31 06:07:38;;;;;;;3.33;1.23;;;16.40;87.10;;;;;;5108237;27;20040;-79
2021/07/31 06:10:06;;;;;;;2.15;1.30;;;16.40;87.00;;;;;;5117340;27;20139;-79
2021/07/31 06:12:33;;;;;;;3.08;1.27;;;16.50;87.00;;;;;;5112665;28;20122;-79
2021/07/31 06:15:01;;;;;;;4.35;1.90;;;16.50;87.00;;;;;;5112546;28;20063;-80
2021/07/31 06:17:28;;;;;;;3.58;1.80;;;16.50;87.00;;;;;;5113409;28;20433;-80
2021/07/31 06:19:55;;;;;;;5.85;1.50;;;16.50;87.00;;;;;;5094653;28;20123;-79
2021/07/31 06:22:22;;;;;;;4.00;1.92;;;16.50;87.00;;;;;;5045592;28;20437;-79
2021/07/31 06:24:49;;;;;;;3.10;1.63;;;16.50;87.00;;;;;;5103849;28;20372;-80
2021/07/31 06:27:16;;;;;;;2.67;1.30;;;16.50;86.90;;;;;;5090595;28;20047;-79
2021/07/31 06:29:43;;;;;;;2.60;1.05;;;16.60;86.90;;;;;;5118925;28;20043;-79
2021/07/31 06:32:09;;;;;;;2.30;1.30;;;16.60;86.70;;;;;;5100398;28;20063;-79
2021/07/31 06:34:36;;;;;;;2.47;1.17;;;16.70;86.60;;;;;;5110260;28;20047;-79
2021/07/31 06:37:04;;;;;;;4.28;1.40;;;16.70;86.60;;;;;;5110410;28;20111;-79
2021/07/31 06:39:31;;;;;;;3.53;2.08;;;16.70;86.60;;;;;;5112006;28;20047;-79
2021/07/31 06:41:58;;;;;;;3.97;2.13;;;16.70;86.70;;;;;;5111436;28;20406;-79
2021/07/31 06:44:25;;;;;;;3.67;1.73;;;16.60;86.70;;;;;;5120896;28;20089;-79
2021/07/31 06:46:51;;;;;;;5.35;1.35;;;16.60;86.80;;;;;;5111664;28;20035;-79
2021/07/31 06:49:18;;;;;;;3.42;1.60;;;16.60;86.80;;;;;;5111461;28;20048;-79
2021/07/31 06:51:47;;;;;;;2.45;1.10;;;16.60;86.70;;;;;;5094103;28;20108;-79
2021/07/31 06:54:14;;;;;;;2.47;1.17;;;16.70;86.70;;;;;;5110690;28;20039;-78
2021/07/31 06:56:41;;;;;;;3.72;1.55;;;16.70;86.70;;;;;;5110861;28;20783;-78
2021/07/31 06:59:08;;;;;;;4.38;1.40;;;16.80;86.60;;;;;;5113243;28;20031;-79
2021/07/31 07:01:35;;;;;;;4.10;1.30;;;16.80;86.60;;;;;;5109126;28;20070;-79
2021/07/31 07:04:03;;;;;;;3.83;1.48;;;16.80;86.40;;;;;;5104119;28;20090;-79
2021/07/31 07:06:30;;;;;;;4.00;1.80;;;16.80;86.50;;;;;;5112392;28;20063;-79
2021/07/31 07:08:59;;;;;;;2.50;1.35;;;16.80;86.50;;;;;;5101168;28;20485;-79
2021/07/31 07:11:26;;;;;;;4.57;1.20;;;16.80;86.50;;;;;;5099911;28;20036;-81
2021/07/31 07:13:53;;;;;;;7.60;1.65;;;16.80;86.50;;;;;;5114761;28;20074;-78
2021/07/31 07:16:20;;;;;;;5.80;2.22;;;16.80;86.50;;;;;;5113006;28;20368;-79
2021/07/31 07:18:48;;;;;;;2.83;1.40;;;16.70;86.60;;;;;;5080709;28;20105;-81
2021/07/31 07:21:15;;;;;;;3.15;1.13;;;16.70;86.70;;;;;;5110938;28;20032;-79
2021/07/31 07:23:42;;;;;;;4.30;1.35;;;16.70;86.70;;;;;;5111137;28;20040;-79
2021/07/31 07:26:10;;;;;;;2.90;1.58;;;16.80;86.70;;;;;;5104319;28;20097;-79
2021/07/31 07:28:38;;;;;;;4.80;1.85;;;16.80;86.70;;;;;;5107082;28;20045;-78
2021/07/31 07:31:05;;;;;;;6.00;1.60;;;16.90;86.60;;;;;;5084113;28;20075;-78
2021/07/31 07:33:40;;;;;;;7.18;2.17;;;16.90;86.50;;;;;;5113335;28;20028;-79
2021/07/31 07:36:15;;;;;;;2.90;1.50;;;16.90;86.40;;;;;;5115118;27;20035;-78
2021/07/31 07:38:43;;;;;;;2.53;1.38;;;16.90;86.40;;;;;;5104488;27;20051;-79
2021/07/31 07:41:11;;;;;;;3.78;1.85;;;16.80;86.60;;;;;;5114112;28;20105;-79
2021/07/31 07:43:38;;;;;;;4.03;2.20;;;16.80;86.80;;;;;;5110451;28;20048;-79
2021/07/31 07:46:05;;;;;;;2.80;1.80;;;16.80;86.90;;;;;;5099984;27;20044;-79
2021/07/31 07:48:32;;;;;;;4.88;2.55;;;16.80;86.80;;;;;;5106965;28;20054;-79
2021/07/31 07:50:59;;;;;;;4.57;1.95;;;16.80;86.90;;;;;;5107579;28;20059;-79
2021/07/31 07:53:26;;;;;;;2.78;1.77;;;16.70;87.00;;;;;;5104229;27;20035;-80
2021/07/31 07:55:53;;;;;;;3.45;2.40;;;16.70;87.20;;;;;;5090336;28;20032;-80
2021/07/31 07:58:20;;;;;;;3.45;2.15;;;16.60;87.40;;;;;;5087185;28;20036;-80
2021/07/31 08:00:47;;;;;;;4.03;1.83;;;16.60;87.50;;;;;;5106112;28;20124;-80
2021/07/31 08:03:14;;;;;;;3.03;2.05;;;16.60;87.40;;;;;;5106396;27;20032;-80
2021/07/31 08:05:42;;;;;;;4.00;2.60;;;16.70;87.60;;;;;;5104384;28;20043;-80
2021/07/31 08:08:09;;;;;;;3.30;2.40;;;16.80;87.60;;;;;;5100382;27;20045;-80
2021/07/31 08:10:36;;;;;;;3.83;2.22;;;17.00;87.40;;;;;;5104306;28;20074;-80
2021/07/31 08:13:03;;;;;;;4.80;3.05;;;17.10;87.00;;;;;;5121578;27;20456;-80
2021/07/31 08:15:30;;;;;;;5.32;3.50;;;17.20;86.90;;;;;;5108499;28;20040;-80
2021/07/31 08:17:58;;;;;;;5.03;3.38;;;17.20;86.90;;;;;;5092465;28;20491;-83
2021/07/31 08:20:25;;;;;;;6.10;3.15;;;17.10;87.10;;;;;;5096016;28;20204;-81
2021/07/31 08:22:52;;;;;;;4.53;3.05;;;17.10;87.20;;;;;;5091281;28;20044;-83
2021/07/31 08:25:19;;;;;;;4.85;3.38;;;17.10;87.30;;;;;;5112297;28;20065;-79
2021/07/31 08:27:46;;;;;;;5.18;3.45;;;17.10;87.50;;;;;;5106421;28;20067;-82
2021/07/31 08:30:45;;;;;;;5.28;3.75;;;17.10;87.60;;;;;;5097821;28;20036;-81
2021/07/31 08:33:12;;;;;;;4.90;3.00;;;17.40;87.20;;;;;;5105849;28;20044;-81
2021/07/31 08:35:39;;;;;;;5.15;3.53;;;17.60;87.00;;;;;;5090289;28;20040;-80
2021/07/31 08:38:06;;;;;;;5.70;4.35;;;17.80;86.60;;;;;;5098731;28;20081;-82
2021/07/31 08:40:34;;;;;;;5.97;4.10;;;17.80;86.50;;;;;;5091099;28;20116;-81
2021/07/31 08:43:01;;;;;;;4.45;3.13;;;17.70;87.10;;;;;;5103277;28;20034;-79
2021/07/31 08:45:29;;;;;;;3.75;2.17;;;17.70;86.60;;;;;;5102472;28;20059;-79
2021/07/31 08:47:57;;;;;;;5.28;2.72;;;17.70;86.70;;;;;;5089205;28;20045;-80
2021/07/31 08:50:26;;;;;;;4.40;3.15;;;17.80;86.60;;;;;;5088345;28;20039;-79
2021/07/31 08:52:56;;;;;;;3.95;2.65;;;17.80;86.50;;;;;;5100675;27;20032;-79
2021/07/31 08:55:44;;;;;;;4.50;3.13;;;17.80;86.50;;;;;;5101499;28;20036;-79
2021/07/31 08:58:14;;;;;;;4.40;2.75;;;17.70;86.60;;;;;;5092222;28;20077;-81
2021/07/31 09:00:41;;;;;;;3.88;2.80;;;17.70;86.80;;;;;;5100248;28;20055;-81
2021/07/31 09:03:08;;;;;;;7.05;3.42;;;17.60;86.80;;;;;;5105965;28;20110;-81
2021/07/31 09:05:41;;;;;;;6.13;2.97;;;17.50;86.80;;;;;;5097953;28;20044;-81
2021/07/31 09:08:09;;;;;;;6.65;3.35;;;17.40;86.80;;;;;;5100089;28;20054;-81
2021/07/31 09:10:44;;;;;;;4.05;3.20;;;17.30;87.00;;;;;;5110780;28;20534;-82
2021/07/31 09:13:13;;;;;;;4.85;2.75;;;17.20;87.40;;;;;;5081640;28;20039;-82
2021/07/31 09:15:52;;;;;;;5.55;3.25;;;17.10;87.60;;;;;;5109402;28;20075;-82
2021/07/31 09:18:22;;;;;;;6.15;3.30;;;17.10;88.00;;;;;;5100886;28;20429;-82
2021/07/31 09:21:09;;;;;;;4.72;2.92;;;17.00;88.20;;;;;;5107584;28;20114;-81
2021/07/31 09:23:44;;;;;;;6.57;3.20;;;16.90;88.50;;;;;;5092555;28;20096;-82
2021/07/31 09:26:25;;;;;;;6.50;3.28;;;16.90;88.90;;;;;;5100836;28;20031;-82
2021/07/31 09:29:06;;;;;;;4.88;2.97;;;16.80;89.20;;;;;;5077880;28;20048;-83
2021/07/31 09:31:34;;;;;;;6.22;3.47;;;16.70;89.40;;;;;;5123745;27;20036;-81
2021/07/31 09:34:04;;;;;;;4.28;2.70;;;16.70;89.60;;;;;;5106179;28;20113;-81
2021/07/31 09:36:38;;;;;;;5.20;3.22;;;16.70;89.70;;;;;;5090464;28;20036;-84
2021/07/31 09:39:07;;;;;;;6.15;2.88;;;16.60;90.00;;;;;;5084706;28;20040;-85
2021/07/31 09:41:43;;;;;;;4.75;2.72;;;16.60;90.10;;;;;;5116784;27;20330;-84
2021/07/31 09:44:16;;;;;;;4.78;2.58;;;16.60;90.20;;;;;;5069191;28;20077;-83
2021/07/31 09:46:51;;;;;;;4.03;2.72;;;16.60;90.30;;;;;;5110613;28;20388;-83
2021/07/31 09:49:21;;;;;;;4.47;2.42;;;16.80;90.20;;;;;;5090146;28;20032;-86
2021/07/31 09:51:53;;;;;;;6.60;2.97;;;16.80;90.10;;;;;;5083442;28;20135;-84
2021/07/31 09:54:21;;;;;;;3.22;2.13;;;17.00;90.00;;;;;;5096078;28;20061;-84
2021/07/31 09:56:49;;;;;;;3.60;2.42;;;17.10;90.00;;;;;;5075582;28;20045;-82
2021/07/31 09:59:21;;;;;;;4.85;2.53;;;17.10;90.00;;;;;;5088306;28;20047;-83
2021/07/31 10:02:00;;;;;;;5.00;2.75;;;17.20;90.00;;;;;;5069106;28;20058;-84
2021/07/31 10:04:27;;;;;;;4.95;2.75;;;17.40;90.10;;;;;;5120104;27;20061;-81
2021/07/31 10:06:58;;;;;;;3.03;2.00;;;17.50;90.00;;;;;;5101148;28;20046;-81
2021/07/31 10:09:26;;;;;;;4.50;2.38;;;17.70;89.80;;;;;;5101513;28;20105;-81
2021/07/31 10:11:55;;;;;;;3.78;2.25;;;17.70;89.60;;;;;;5110238;28;20453;-80
2021/07/31 10:14:23;;;;;;;4.80;2.30;;;17.80;89.50;;;;;;5111038;27;20040;-81
2021/07/31 10:16:51;;;;;;;3.08;2.10;;;17.90;89.40;;;;;;5088185;28;20051;-80
2021/07/31 10:19:18;;;;;;;2.50;1.52;;;18.00;89.20;;;;;;5094421;28;20042;-81
2021/07/31 10:22:00;;;;;;;4.15;1.92;;;18.10;89.60;;;;;;5089261;28;20040;-81
2021/07/31 10:24:53;;;;;;;1.83;0.95;;;18.30;88.70;;;;;;5101927;28;20032;-81
2021/07/31 10:27:23;;;;;;;3.97;1.83;;;18.40;88.50;;;;;;5106818;28;20086;-81
2021/07/31 10:29:56;;;;;;;3.22;2.15;;;18.40;88.40;;;;;;5105782;28;20047;-81
2021/07/31 10:32:37;;;;;;;5.03;2.20;;;18.30;88.50;;;;;;5112610;28;20036;-82
2021/07/31 10:35:27;;;;;;;3.80;2.35;;;18.00;89.20;;;;;;5106870;28;20036;-83
2021/07/31 10:37:57;;;;;;;5.30;2.33;;;17.80;89.60;;;;;;5116522;27;20035;-84
2021/07/31 10:40:32;;;;;;;4.03;2.25;;;17.60;90.10;;;;;;5109243;28;20044;-84
2021/07/31 10:42:59;;;;;;;3.88;2.47;;;17.50;90.20;;;;;;5100856;28;20048;-86
2021/07/31 10:45:29;;;;;;;5.18;2.53;;;17.40;90.30;;;;;;5100794;28;20055;-86
2021/07/31 10:47:57;;;;;;;5.20;3.13;;;17.30;90.40;;;;;;5110757;28;20039;-87
2021/07/31 10:50:25;;;;;;;6.43;3.47;;;17.10;90.60;;;;;;5081595;28;20441;-86
2021/07/31 10:53:10;;;;;;;5.18;3.28;;;17.00;90.70;;;;;;5091872;28;20100;-86
2021/07/31 10:55:37;;;;;;;6.18;3.63;;;17.00;90.90;;;;;;5101763;28;20451;-85
2021/07/31 10:58:08;;;;;;;4.30;3.58;;;17.00;91.20;;;;;;5112969;28;20071;-86
2021/07/31 11:00:37;;;;;;;5.60;3.58;;;17.20;91.20;;;;;;5108016;28;20077;-84
2021/07/31 11:03:20;;;;;;;5.38;3.60;;;17.50;91.00;;;;;;5108418;28;20038;-84
2021/07/31 11:05:47;;;;;;;4.47;3.13;;;17.70;90.90;;;;;;5088502;28;20051;-82
2021/07/31 11:08:22;;;;;;;3.78;2.25;;;17.70;90.80;;;;;;5111360;28;20250;-80
2021/07/31 11:11:15;;;;;;;2.85;1.55;;;17.50;90.80;;;;;;5091804;28;20055;-82
2021/07/31 11:13:41;;;;;;;4.28;1.83;;;17.40;90.90;;;;;;5114333;28;20055;-83
2021/07/31 11:16:13;;;;;;;4.43;1.48;;;17.20;91.00;;;;;;5095457;28;20487;-82
2021/07/31 11:18:59;;;;;;;3.00;1.25;;;17.20;91.10;;;;;;5116985;27;20043;-88
2021/07/31 11:21:29;;;;;;;2.22;1.23;;;17.20;91.10;;;;;;5095962;27;20044;-80
2021/07/31 11:24:06;;;;;;;2.28;1.00;;;17.30;91.10;;;;;;5117700;27;20035;-81
2021/07/31 11:26:39;;;;;;;3.38;1.35;;;17.30;91.10;;;;;;5113773;28;20039;-81
2021/07/31 11:29:23;;;;;;;1.63;0.80;;;17.20;91.10;;;;;;5115561;27;20122;-84
2021/07/31 11:32:14;;;;;;;1.92;1.00;;;17.20;91.10;;;;;;5097116;28;20465;-85
2021/07/31 11:34:46;;;;;;;3.50;1.23;;;17.20;91.20;;;;;;5084482;28;20172;-82
2021/07/31 11:37:15;;;;;;;3.13;1.10;;;17.10;91.20;;;;;;5113888;28;20036;-84
2021/07/31 11:39:44;;;;;;;2.65;0.90;;;17.10;91.20;;;;;;5097648;28;20028;-85
2021/07/31 11:42:19;;;;;;;2.40;0.98;;;17.00;91.20;;;;;;5108349;27;20081;-80
2021/07/31 11:44:46;;;;;;;3.15;0.80;;;17.00;91.30;;;;;;5103601;28;20048;-78
2021/07/31 11:47:13;;;;;;;2.35;0.90;;;17.00;91.20;;;;;;5105132;28;20039;-82
2021/07/31 11:49:40;;;;;;;2.50;1.20;;;17.20;91.40;;;;;;5120884;27;20039;-82
2021/07/31 11:52:09;;;;;;;2.58;1.20;;;17.50;91.00;;;;;;5112713;28;20460;-81
2021/07/31 11:54:41;;;;;;;4.35;1.38;;;17.80;90.70;;;;;;5116046;27;20043;-80
2021/07/31 11:57:09;;;;;;;3.53;1.50;;;17.90;90.40;;;;;;5117930;27;20040;-80
2021/07/31 11:59:38;;;;;;;3.80;1.67;;;17.90;90.40;;;;;;5114758;28;20067;-80
2021/07/31 12:02:05;;;;;;;3.78;1.98;;;17.90;90.50;;;;;;5110244;28;20248;-82
2021/07/31 12:04:44;;;;;;;4.70;1.90;;;18.00;90.40;;;;;;5117253;27;20050;-84
2021/07/31 12:07:19;;;;;;;3.33;1.20;;;18.10;90.30;;;;;;5109218;28;20444;-85
2021/07/31 12:10:08;;;;;;;3.92;1.30;;;18.70;90.00;;;;;;5104707;27;20061;-81
2021/07/31 12:12:42;;;;;;;3.53;1.85;;;19.20;88.30;;;;;;5115865;27;20048;-80
2021/07/31 12:15:28;;;;;;;7.70;1.67;;;19.20;88.20;;;;;;5115986;28;20035;-79
2021/07/31 12:17:56;;;;;;;3.78;2.40;;;19.10;88.80;;;;;;5115006;28;20077;-80
2021/07/31 12:20:36;;;;;;;4.63;2.40;;;19.80;88.30;;;;;;5112192;28;20367;-79
2021/07/31 12:23:06;;;;;;;3.75;2.17;;;20.20;87.00;;;;;;5099670;27;20040;-80
2021/07/31 12:25:35;;;;;;;3.85;2.42;;;20.20;86.70;;;;;;5101576;28;20422;-79
2021/07/31 12:28:09;;;;;;;4.57;2.65;;;20.10;86.90;;;;;;5121547;27;20036;-77
2021/07/31 12:30:39;;;;;;;3.60;2.53;;;19.80;87.30;;;;;;5103223;27;20040;-78
2021/07/31 12:33:06;;;;;;;3.83;2.50;;;19.60;87.80;;;;;;5117556;27;20024;-78
2021/07/31 12:35:39;;;;;;;5.50;2.60;;;19.60;88.00;;;;;;5105327;28;20059;-79
2021/07/31 12:38:20;;;;;;;3.45;2.40;;;19.50;88.10;;;;;;5119960;27;20036;-78
2021/07/31 12:40:58;;;;;;;4.57;2.20;;;19.40;88.20;;;;;;5106588;27;20039;-87
2021/07/31 12:43:26;;;;;;;6.93;2.65;;;19.30;88.50;;;;;;5122471;27;20062;-85
2021/07/31 12:45:55;;;;;;;4.20;2.47;;;19.10;88.80;;;;;;5093774;28;20044;-83
2021/07/31 12:48:22;;;;;;;4.25;2.67;;;18.90;89.00;;;;;;5110708;28;20047;-85
2021/07/31 12:50:49;;;;;;;6.18;2.60;;;18.60;89.40;;;;;;5094559;28;20039;-83
2021/07/31 12:53:18;;;;;;;5.38;3.60;;;18.30;90.10;;;;;;5111222;28;20047;-84
2021/07/31 12:55:45;;;;;;;4.10;2.35;;;18.10;90.50;;;;;;5109582;27;20039;-82
2021/07/31 12:58:12;;;;;;;4.72;3.05;;;18.00;90.70;;;;;;5109567;27;20043;-82
2021/07/31 13:00:39;;;;;;;5.55;2.38;;;17.90;90.90;;;;;;5111192;28;20043;-81
2021/07/31 13:03:08;;;;;;;4.60;2.22;;;17.90;91.00;;;;;;5115613;27;20043;-83
2021/07/31 13:05:36;;;;;;;4.90;2.20;;;17.90;91.00;;;;;;5114319;27;20039;-83